Time;durP1;ratioP1;P1;durP2;ratioP2;P2;SDS_P1;SDS_P2;PMS_P1;PMS_P2;Temp;Humidity;BMP_temperature;BMP_pressure;BME280_temperature;BME280_humidity;BME280_pressure;Samples;Min_cycle;Max_cycle;Signal;HPM_P1;HPM_P2
2023/10/16 00:01:18;;;;;;;3.17;1.47;;;6.60;99.90;;;;;;6308264;22;20476;-38
2023/10/16 00:03:43;;;;;;;2.50;1.93;;;6.60;99.90;;;;;;6307299;22;20670;-38
2023/10/16 00:06:11;;;;;;;2.53;1.57;;;6.60;99.90;;;;;;6306807;22;20396;-39
2023/10/16 00:08:46;;;;;;;1.93;1.47;;;6.60;99.90;;;;;;6280567;22;20136;-38
2023/10/16 00:11:25;;;;;;;3.67;1.53;;;6.60;99.90;;;;;;6306840;22;20350;-37
2023/10/16 00:13:51;;;;;;;2.63;1.77;;;6.60;99.90;;;;;;6306161;22;20484;-39
2023/10/16 00:16:20;;;;;;;2.77;1.87;;;6.60;99.90;;;;;;6304882;22;20414;-42
2023/10/16 00:18:47;;;;;;;3.10;1.70;;;6.60;99.90;;;;;;6306073;22;20524;-39
2023/10/16 00:21:13;;;;;;;2.70;1.50;;;6.50;99.90;;;;;;6306206;22;20438;-38
2023/10/16 00:23:40;;;;;;;2.30;1.67;;;6.50;99.90;;;;;;6304554;22;20355;-38
2023/10/16 00:26:09;;;;;;;3.87;1.63;;;6.50;99.90;;;;;;6304218;22;20350;-38
2023/10/16 00:28:35;;;;;;;1.93;1.50;;;6.50;99.90;;;;;;6305322;22;20397;-37
2023/10/16 00:31:01;;;;;;;2.60;1.80;;;6.50;99.90;;;;;;6278983;22;20936;-38
2023/10/16 00:33:27;;;;;;;3.57;1.70;;;6.50;99.80;;;;;;6306473;22;20251;-39
2023/10/16 00:35:53;;;;;;;3.57;2.53;;;6.40;97.30;;;;;;6306684;22;20148;-39
2023/10/16 00:38:19;;;;;;;2.97;2.00;;;6.40;97.50;;;;;;6307845;22;20366;-41
2023/10/16 00:43:33;;;;;;;3.30;2.70;;;6.40;97.50;;;;;;6307959;22;20425;-39
2023/10/16 00:46:14;;;;;;;2.17;1.80;;;6.30;99.90;;;;;;6307579;22;20473;-38
2023/10/16 00:48:40;;;;;;;4.13;1.73;;;6.30;99.90;;;;;;6308477;22;20480;-38
2023/10/16 00:51:09;;;;;;;3.33;1.97;;;6.30;99.90;;;;;;6308051;22;20401;-40
2023/10/16 00:53:37;;;;;;;2.93;2.00;;;6.30;99.90;;;;;;6310635;22;20431;-38
2023/10/16 00:56:08;;;;;;;3.33;2.10;;;6.20;99.90;;;;;;6282213;22;20377;-38
2023/10/16 00:58:36;;;;;;;2.80;2.00;;;6.20;99.90;;;;;;6309026;22;20786;-38
2023/10/16 01:01:12;;;;;;;5.60;2.40;;;6.20;99.90;;;;;;6307637;22;20433;-38
2023/10/16 01:03:40;;;;;;;2.23;1.70;;;6.20;99.90;;;;;;6307997;22;20396;-39
2023/10/16 01:06:17;;;;;;;3.20;2.07;;;6.10;99.90;;;;;;6307694;22;20385;-38
2023/10/16 01:08:50;;;;;;;3.70;2.27;;;6.10;99.90;;;;;;6307613;22;20640;-39
2023/10/16 01:11:19;;;;;;;4.77;2.10;;;6.10;99.90;;;;;;6307623;22;20416;-39
2023/10/16 01:13:48;;;;;;;2.40;1.87;;;6.10;99.90;;;;;;6308779;22;20414;-39
2023/10/16 01:16:16;;;;;;;2.63;2.20;;;6.10;99.90;;;;;;6307475;22;20393;-38
2023/10/16 01:18:43;;;;;;;2.93;2.07;;;6.00;99.90;;;;;;6305913;22;20886;-40
2023/10/16 01:21:08;;;;;;;4.70;2.13;;;6.00;99.90;;;;;;6306422;22;20875;-39
2023/10/16 01:23:34;;;;;;;2.17;1.93;;;6.00;99.90;;;;;;6308506;22;20375;-39
2023/10/16 01:26:01;;;;;;;2.87;2.13;;;5.90;99.90;;;;;;6307688;22;20132;-38
2023/10/16 01:28:27;;;;;;;2.67;2.47;;;5.90;99.90;;;;;;6309009;22;20417;-38
2023/10/16 01:30:53;;;;;;;2.63;2.10;;;5.90;99.90;;;;;;6309343;22;20405;-38
2023/10/16 01:33:19;;;;;;;3.23;2.20;;;5.90;99.90;;;;;;6308829;22;20480;-39
2023/10/16 01:35:46;;;;;;;2.57;1.80;;;5.90;99.90;;;;;;6308992;22;20693;-38
2023/10/16 01:38:16;;;;;;;3.60;2.10;;;5.80;99.90;;;;;;6310053;22;20469;-39
2023/10/16 01:41:09;;;;;;;3.20;2.30;;;5.80;99.90;;;;;;6309620;22;20418;-39
2023/10/16 01:43:38;;;;;;;2.30;1.80;;;5.80;99.90;;;;;;6309343;22;20417;-38
2023/10/16 01:46:08;;;;;;;2.77;2.00;;;5.80;99.90;;;;;;6307899;22;20411;-38
2023/10/16 01:48:39;;;;;;;4.30;2.43;;;5.80;99.90;;;;;;6307483;22;20410;-38
2023/10/16 01:51:10;;;;;;;3.10;2.27;;;5.80;99.90;;;;;;6306259;22;20389;-38
2023/10/16 01:53:37;;;;;;;4.03;2.30;;;5.80;99.90;;;;;;6306537;22;20446;-39
2023/10/16 01:56:15;;;;;;;3.23;2.27;;;5.70;99.90;;;;;;6306995;22;20374;-39
2023/10/16 01:58:45;;;;;;;3.37;2.20;;;5.70;99.90;;;;;;6308150;22;20382;-40
2023/10/16 02:01:11;;;;;;;3.27;2.17;;;5.70;99.90;;;;;;6307987;22;20433;-38
2023/10/16 02:03:45;;;;;;;2.77;2.20;;;5.70;99.90;;;;;;6307959;22;20374;-38
2023/10/16 02:06:15;;;;;;;5.03;2.10;;;5.60;99.90;;;;;;6309427;22;20653;-38
2023/10/16 02:08:43;;;;;;;1.80;1.60;;;5.60;99.90;;;;;;6309430;22;20419;-39
2023/10/16 02:11:10;;;;;;;2.33;2.10;;;5.60;99.90;;;;;;6281586;22;20354;-38
2023/10/16 02:13:40;;;;;;;2.10;1.87;;;5.60;99.90;;;;;;6309588;22;20463;-43
2023/10/16 02:16:09;;;;;;;3.63;2.17;;;5.60;99.90;;;;;;6309504;22;20383;-38
2023/10/16 02:18:40;;;;;;;2.23;1.97;;;5.60;99.90;;;;;;6309222;22;20393;-39
2023/10/16 02:21:12;;;;;;;2.80;2.13;;;5.50;99.90;;;;;;6263040;22;20478;-39
2023/10/16 02:23:38;;;;;;;2.07;1.87;;;5.50;99.90;;;;;;6277971;22;20390;-38
2023/10/16 02:26:06;;;;;;;2.07;1.70;;;5.50;99.90;;;;;;6277925;22;20363;-38
2023/10/16 02:28:35;;;;;;;2.20;2.00;;;5.50;99.90;;;;;;6278006;22;20379;-39
2023/10/16 02:31:15;;;;;;;2.17;1.70;;;5.50;99.90;;;;;;6278407;22;20504;-38
2023/10/16 02:34:12;;;;;;;2.30;1.70;;;5.40;99.90;;;;;;6277560;22;20448;-39
2023/10/16 02:36:31;;;;;;;2.13;1.70;;;5.40;99.90;;;;;;6275340;22;20755;-39
2023/10/16 02:38:56;;;;;;;3.23;2.07;;;5.40;99.90;;;;;;6277891;22;20480;-39
2023/10/16 02:41:22;;;;;;;2.90;2.00;;;5.40;99.90;;;;;;6249921;22;20714;-39
2023/10/16 02:43:48;;;;;;;4.13;2.07;;;5.30;99.90;;;;;;6251123;22;20532;-39
2023/10/16 02:46:18;;;;;;;2.93;2.23;;;5.30;99.90;;;;;;6276785;22;20238;-38
2023/10/16 02:48:43;;;;;;;2.97;2.30;;;5.30;99.90;;;;;;6276153;22;20383;-40
2023/10/16 02:51:10;;;;;;;3.77;2.47;;;5.30;99.90;;;;;;6276196;22;20486;-38
2023/10/16 02:53:37;;;;;;;3.63;2.43;;;5.30;99.90;;;;;;6276384;22;20133;-39
2023/10/16 02:58:54;;;;;;;4.50;2.13;;;5.20;99.90;;;;;;6275178;22;20383;-39
2023/10/16 03:01:21;;;;;;;3.07;1.97;;;5.20;99.90;;;;;;6277480;22;20427;-38
2023/10/16 03:03:47;;;;;;;3.60;2.17;;;5.20;99.90;;;;;;6277975;22;20393;-38
2023/10/16 03:06:14;;;;;;;3.23;2.13;;;5.20;99.90;;;;;;6276483;22;20585;-38
2023/10/16 03:08:45;;;;;;;3.73;1.97;;;5.20;99.90;;;;;;6277237;22;20397;-39
2023/10/16 03:11:13;;;;;;;2.90;2.30;;;5.20;99.90;;;;;;6276504;22;20415;-40
2023/10/16 03:13:47;;;;;;;2.60;2.00;;;5.10;99.90;;;;;;6278339;22;20393;-38
2023/10/16 03:16:18;;;;;;;2.90;1.97;;;5.10;99.90;;;;;;6277451;22;20401;-38
2023/10/16 03:18:47;;;;;;;4.97;2.07;;;5.10;99.90;;;;;;6277269;22;20395;-38
2023/10/16 03:23:46;;;;;;;2.57;2.00;;;5.10;99.90;;;;;;6281508;22;20367;-38
2023/10/16 03:28:47;;;;;;;2.60;2.13;;;5.00;99.90;;;;;;6307714;22;20493;-38
2023/10/16 03:31:14;;;;;;;2.30;2.00;;;5.00;99.90;;;;;;6307288;22;20458;-38
2023/10/16 03:33:39;;;;;;;3.47;2.23;;;5.00;99.90;;;;;;6308446;22;20387;-38
2023/10/16 03:36:05;;;;;;;3.83;2.10;;;5.00;99.90;;;;;;6281154;22;20405;-38
2023/10/16 03:38:37;;;;;;;2.73;2.07;;;4.90;99.90;;;;;;6307683;22;20175;-38
2023/10/16 03:43:47;;;;;;;4.27;2.70;;;4.90;99.90;;;;;;6307313;22;20492;-40
2023/10/16 03:46:13;;;;;;;2.17;1.80;;;4.90;99.90;;;;;;6307033;22;20392;-37
2023/10/16 03:48:39;;;;;;;3.20;2.50;;;4.90;99.90;;;;;;6307932;22;20418;-38
2023/10/16 03:51:08;;;;;;;5.47;2.27;;;4.90;99.90;;;;;;6307336;22;20204;-38
2023/10/16 03:53:35;;;;;;;2.30;1.80;;;4.90;99.90;;;;;;6305858;22;20151;-37
2023/10/16 03:56:02;;;;;;;3.30;3.00;;;4.90;99.90;;;;;;6305348;22;20378;-38
2023/10/16 03:58:27;;;;;;;2.43;2.23;;;4.80;99.90;;;;;;6277129;22;20471;-38
2023/10/16 04:00:53;;;;;;;2.50;2.30;;;4.80;99.90;;;;;;6275193;22;20437;-41
2023/10/16 04:03:23;;;;;;;3.33;2.30;;;4.80;99.90;;;;;;6303650;22;20155;-40
2023/10/16 04:05:50;;;;;;;3.23;2.23;;;4.80;99.90;;;;;;6276464;22;20388;-38
2023/10/16 04:08:23;;;;;;;3.77;2.63;;;4.80;99.90;;;;;;6277828;22;20354;-38
2023/10/16 04:10:49;;;;;;;3.37;2.93;;;4.70;99.90;;;;;;6303722;22;20382;-38
2023/10/16 04:13:18;;;;;;;3.33;2.60;;;4.70;99.90;;;;;;6303686;22;20390;-39
2023/10/16 04:21:37;;;;;;;3.40;2.83;;;4.70;99.90;;;;;;6303664;22;20445;-38
2023/10/16 04:31:44;;;;;;;3.77;2.80;;;4.60;99.90;;;;;;6306902;22;20466;-39
2023/10/16 04:47:55;;;;;;;4.10;3.53;;;4.50;99.90;;;;;;6306564;22;20367;-38
2023/10/16 05:01:03;;;;;;;3.53;2.70;;;4.40;99.90;;;;;;6306104;22;20606;-38
2023/10/16 05:17:21;;;;;;;4.30;3.90;;;4.40;99.90;;;;;;6304822;22;20398;-40
2023/10/16 05:19:53;;;;;;;3.60;3.00;;;4.40;99.90;;;;;;6303528;22;20786;-38
2023/10/16 06:14:17;;;;;;;17.37;5.07;;;6.20;1.00;;;;;;6305304;22;20362;-39
2023/10/16 06:16:50;;;;;;;11.03;4.20;;;6.60;99.90;;;;;;6306588;22;20390;-39
2023/10/16 06:19:17;;;;;;;11.57;4.37;;;6.80;1.00;;;;;;6305982;22;20152;-39
2023/10/16 06:21:47;;;;;;;8.30;3.67;;;7.10;1.00;;;;;;6308331;22;20438;-38
2023/10/16 06:24:25;;;;;;;6.43;3.63;;;7.40;99.90;;;;;;6307633;22;20462;-39
2023/10/16 06:27:08;;;;;;;12.50;4.13;;;7.60;1.00;;;;;;6306450;22;20386;-43
2023/10/16 06:29:35;;;;;;;7.93;3.17;;;7.90;1.00;;;;;;6305537;22;20441;-40
2023/10/16 06:32:19;;;;;;;7.70;3.47;;;8.10;1.00;;;;;;6308032;22;20387;-40
2023/10/16 06:34:46;;;;;;;6.53;3.70;;;8.30;1.00;;;;;;6307732;22;20416;-40
2023/10/16 06:37:16;;;;;;;7.73;3.63;;;8.50;99.90;;;;;;6306483;22;20379;-38
2023/10/16 06:39:44;;;;;;;7.03;4.77;;;8.60;1.00;;;;;;6305742;22;20469;-40
2023/10/16 06:42:14;;;;;;;8.47;4.50;;;8.80;1.00;;;;;;6304539;22;20378;-40
2023/10/16 06:44:42;;;;;;;7.73;4.20;;;9.00;99.90;;;;;;6307419;22;20350;-41
2023/10/16 06:47:12;;;;;;;9.17;4.57;;;9.20;99.90;;;;;;6278608;22;20807;-39
2023/10/16 06:49:38;;;;;;;6.67;3.87;;;9.50;1.00;;;;;;6279605;22;20409;-39
2023/10/16 06:52:05;;;;;;;7.70;3.93;;;9.70;99.90;;;;;;6306739;22;20782;-41
2023/10/16 06:54:32;;;;;;;8.23;4.40;;;9.90;22.50;;;;;;6306504;22;20378;-41
2023/10/16 06:57:05;;;;;;;7.20;3.83;;;10.10;1.00;;;;;;6305500;22;20432;-39
2023/10/16 06:59:32;;;;;;;17.30;5.23;;;10.30;99.90;;;;;;6277314;22;20351;-39
2023/10/16 07:01:57;;;;;;;14.20;4.80;;;10.50;1.00;;;;;;6302439;22;20558;-37
2023/10/16 07:04:23;;;;;;;9.13;4.20;;;10.70;1.00;;;;;;6278004;22;20749;-37
2023/10/16 07:06:49;;;;;;;8.17;4.00;;;10.80;99.90;;;;;;6307349;22;20217;-37
2023/10/16 07:09:16;;;;;;;5.03;4.20;;;11.00;1.00;;;;;;6305161;22;20156;-38
2023/10/16 07:11:42;;;;;;;7.70;4.70;;;11.00;1.00;;;;;;6305682;22;20128;-39
2023/10/16 07:14:12;;;;;;;4.30;3.90;;;11.00;1.00;;;;;;6305768;22;20361;-38
2023/10/16 07:16:40;;;;;;;7.97;3.97;;;11.00;1.00;;;;;;6308767;22;20382;-39
2023/10/16 07:19:07;;;;;;;10.13;4.93;;;11.10;1.00;;;;;;6279342;22;20389;-38
2023/10/16 07:21:33;;;;;;;6.43;3.70;;;11.20;1.00;;;;;;6304871;22;20445;-39
2023/10/16 07:23:59;;;;;;;6.93;4.00;;;11.40;1.00;;;;;;6277269;22;20382;-39
2023/10/16 07:26:28;;;;;;;8.10;4.20;;;11.50;1.00;;;;;;6301564;22;20359;-39
2023/10/16 07:28:54;;;;;;;9.80;4.50;;;11.70;99.90;;;;;;6303530;22;20539;-38
2023/10/16 07:31:22;;;;;;;6.43;3.97;;;11.90;99.90;;;;;;6305340;22;20389;-38
2023/10/16 07:33:53;;;;;;;7.77;4.30;;;12.20;99.90;;;;;;6303258;22;20424;-38
2023/10/16 07:36:18;;;;;;;9.17;3.70;;;12.40;99.90;;;;;;6305011;22;20401;-39
2023/10/16 07:38:44;;;;;;;10.13;4.40;;;12.70;99.90;;;;;;6305575;22;20438;-40
2023/10/16 07:41:13;;;;;;;7.30;4.07;;;12.80;99.90;;;;;;6307519;22;20160;-38
2023/10/16 07:43:39;;;;;;;7.57;4.17;;;13.00;99.90;;;;;;6307874;22;20223;-38
2023/10/16 07:48:34;;;;;;;11.27;4.10;;;13.30;99.90;;;;;;6307668;22;20504;-38
2023/10/16 07:51:01;;;;;;;8.20;3.53;;;13.60;73.20;;;;;;6306503;22;20382;-40
2023/10/16 07:53:28;;;;;;;7.80;3.80;;;13.80;28.10;;;;;;6306262;22;20358;-37
2023/10/16 07:55:55;;;;;;;8.67;3.43;;;14.10;1.00;;;;;;6305712;22;20606;-38
2023/10/16 07:58:33;;;;;;;3.10;2.30;;;14.30;1.00;;;;;;6308888;22;20386;-40
2023/10/16 08:03:41;;;;;;;3.83;2.37;;;14.80;1.00;;;;;;6306785;22;20560;-38
2023/10/16 08:06:12;;;;;;;2.90;2.07;;;15.20;1.00;;;;;;6307288;22;20377;-38
2023/10/16 08:08:42;;;;;;;3.13;2.10;;;15.50;1.00;;;;;;6281466;22;20429;-40
2023/10/16 08:11:13;;;;;;;4.87;2.60;;;15.70;1.00;;;;;;6307525;22;20382;-38
2023/10/16 08:13:46;;;;;;;5.67;2.60;;;15.90;1.00;;;;;;6307914;22;20353;-39
2023/10/16 08:16:18;;;;;;;3.13;1.90;;;16.20;1.00;;;;;;6308287;22;20390;-38
2023/10/16 08:18:53;;;;;;;3.10;2.13;;;16.40;1.00;;;;;;6306145;22;20813;-38
2023/10/16 08:21:25;;;;;;;3.93;2.03;;;16.60;1.00;;;;;;6305860;22;20436;-40
2023/10/16 08:23:57;;;;;;;5.40;2.33;;;16.90;1.00;;;;;;6305150;22;20378;-40
2023/10/16 08:26:30;;;;;;;4.60;2.00;;;17.40;1.00;;;;;;6307380;22;20835;-38
2023/10/16 08:29:11;;;;;;;2.27;1.60;;;17.90;1.00;;;;;;6307723;22;20379;-41
2023/10/16 08:31:43;;;;;;;3.40;2.20;;;18.30;1.00;;;;;;6307575;22;20437;-38
2023/10/16 08:34:21;;;;;;;7.13;2.10;;;18.70;1.00;;;;;;6310556;22;20415;-38
2023/10/16 08:36:50;;;;;;;4.77;2.27;;;19.10;1.00;;;;;;6281139;22;20405;-39
2023/10/16 08:39:21;;;;;;;5.17;2.33;;;19.50;1.00;;;;;;6281352;22;20414;-39
2023/10/16 08:41:53;;;;;;;3.77;2.63;;;19.90;1.00;;;;;;6307782;22;20440;-40
2023/10/16 08:44:21;;;;;;;5.60;2.20;;;20.40;1.00;;;;;;6307413;22;20511;-38
2023/10/16 08:49:25;;;;;;;2.57;1.70;;;21.40;1.00;;;;;;6307739;22;20385;-40
2023/10/16 08:51:52;;;;;;;6.60;2.40;;;21.90;1.00;;;;;;6308874;22;20405;-41
2023/10/16 08:57:03;;;;;;;2.20;1.80;;;22.30;1.00;;;;;;6305473;22;20428;-39
2023/10/16 08:59:30;;;;;;;4.20;2.67;;;22.40;1.00;;;;;;6271888;22;20881;-39
2023/10/16 09:01:57;;;;;;;3.37;2.30;;;22.50;1.00;;;;;;6270499;22;20438;-39
2023/10/16 09:04:27;;;;;;;3.03;1.73;;;22.70;1.00;;;;;;6274091;22;20371;-39
2023/10/16 09:06:52;;;;;;;5.20;2.07;;;22.80;1.00;;;;;;6272582;22;20773;-42
2023/10/16 09:09:18;;;;;;;3.37;1.73;;;23.00;1.00;;;;;;6274326;22;20379;-40
2023/10/16 09:11:45;;;;;;;4.13;2.27;;;23.20;1.00;;;;;;6273645;22;20159;-42
2023/10/16 09:14:17;;;;;;;2.80;1.77;;;23.40;1.00;;;;;;6275489;22;20391;-41
2023/10/16 09:16:51;;;;;;;2.50;1.73;;;23.70;1.00;;;;;;6276439;22;20386;-39
2023/10/16 09:19:18;;;;;;;3.13;1.97;;;23.90;1.00;;;;;;6277481;22;20676;-39
2023/10/16 09:21:44;;;;;;;3.10;1.60;;;24.00;1.00;;;;;;6275872;22;20426;-39
2023/10/16 09:24:13;;;;;;;4.87;1.90;;;24.00;1.00;;;;;;6276261;22;20382;-39
2023/10/16 09:26:44;;;;;;;2.97;2.10;;;24.00;1.00;;;;;;6275566;22;20464;-40
2023/10/16 09:29:20;;;;;;;2.03;1.47;;;24.00;1.00;;;;;;6274491;22;20379;-39
2023/10/16 09:31:46;;;;;;;2.13;1.67;;;23.80;1.00;;;;;;6275878;22;20432;-39
2023/10/16 09:34:15;;;;;;;6.43;2.07;;;23.80;1.00;;;;;;6275549;22;20529;-39
2023/10/16 09:36:41;;;;;;;4.10;1.70;;;23.90;1.00;;;;;;6274731;22;20402;-38
2023/10/16 09:39:17;;;;;;;3.30;1.53;;;24.10;1.00;;;;;;6276094;22;20394;-41
2023/10/16 09:41:43;;;;;;;2.80;2.00;;;24.70;1.00;;;;;;6276541;22;20694;-38
2023/10/16 09:44:09;;;;;;;2.30;1.70;;;25.20;1.00;;;;;;6275686;22;20774;-38
2023/10/16 09:49:22;;;;;;;2.97;1.60;;;25.90;1.00;;;;;;6277316;22;20140;-38
2023/10/16 09:51:48;;;;;;;2.23;1.40;;;26.10;1.00;;;;;;6276359;22;20398;-38
2023/10/16 09:54:15;;;;;;;15.47;3.77;;;26.60;1.00;;;;;;6274867;22;20479;-40
2023/10/16 09:56:52;;;;;;;9.63;2.50;;;27.10;1.00;;;;;;6274807;22;20468;-41
2023/10/16 09:59:32;;;;;;;4.90;1.90;;;27.50;1.00;;;;;;6230718;22;1090128;-40
2023/10/16 10:02:05;;;;;;;4.23;2.07;;;28.10;1.00;;;;;;6306439;22;20274;-40
2023/10/16 10:04:43;;;;;;;5.27;2.03;;;28.60;1.00;;;;;;6306282;22;20354;-39
2023/10/16 10:07:20;;;;;;;5.27;1.77;;;29.20;1.00;;;;;;6281208;22;20369;-38
2023/10/16 10:09:48;;;;;;;5.23;1.73;;;30.10;1.00;;;;;;6305652;22;20780;-38
2023/10/16 10:12:42;;;;;;;5.17;1.77;;;30.70;1.00;;;;;;6278696;22;20390;-38
2023/10/16 10:15:17;;;;;;;4.90;1.60;;;31.00;1.00;;;;;;6307650;22;20809;-40
2023/10/16 10:17:43;;;;;;;5.97;2.30;;;31.60;1.00;;;;;;6306667;22;20389;-40
2023/10/16 10:20:17;;;;;;;4.53;2.30;;;32.70;1.00;;;;;;6280187;22;21041;-46
2023/10/16 10:22:45;;;;;;;5.23;2.73;;;33.50;1.00;;;;;;6306688;22;20371;-50
2023/10/16 10:25:25;;;;;;;4.97;1.93;;;34.10;1.00;;;;;;6306818;22;20771;-46
2023/10/16 10:27:55;;;;;;;11.83;2.30;;;34.80;1.00;;;;;;6307278;22;20455;-46
2023/10/16 10:30:25;;;;;;;4.60;2.47;;;35.20;1.00;;;;;;6308612;22;20384;-46
2023/10/16 10:32:57;;;;;;;6.20;2.40;;;35.60;1.00;;;;;;6305419;22;20444;-46
2023/10/16 10:35:38;;;;;;;5.07;1.97;;;36.10;1.00;;;;;;6307303;22;20461;-46
2023/10/16 10:38:24;;;;;;;4.47;2.17;;;37.10;1.00;;;;;;6307063;22;20386;-46
2023/10/16 10:41:11;;;;;;;4.30;2.07;;;37.90;1.00;;;;;;6255165;22;20438;-47
2023/10/16 10:43:48;;;;;;;3.80;2.40;;;38.10;1.00;;;;;;6304953;22;20766;-47
2023/10/16 10:46:22;;;;;;;5.70;1.70;;;39.00;1.00;;;;;;6306936;22;20358;-46
2023/10/16 10:48:48;;;;;;;6.77;2.13;;;39.10;1.00;;;;;;6305763;22;20382;-46
2023/10/16 10:51:16;;;;;;;28.63;6.90;;;39.10;1.00;;;;;;6305692;22;20458;-46
2023/10/16 10:53:55;;;;;;;33.03;8.07;;;39.30;1.00;;;;;;6305954;22;20482;-46
2023/10/16 10:56:21;;;;;;;11.73;4.03;;;39.70;1.00;;;;;;6306239;22;21001;-46
2023/10/16 10:58:46;;;;;;;9.33;2.80;;;39.70;1.00;;;;;;6306422;22;20378;-45
2023/10/16 11:01:16;;;;;;;10.03;3.10;;;40.20;1.00;;;;;;6307918;22;20544;-44
2023/10/16 11:03:45;;;;;;;5.13;2.30;;;40.60;1.00;;;;;;6307438;22;20159;-46
2023/10/16 11:06:18;;;;;;;8.23;2.57;;;40.50;1.00;;;;;;6306845;22;20669;-47
2023/10/16 11:08:50;;;;;;;6.73;2.83;;;40.30;1.00;;;;;;6307073;22;20725;-47
2023/10/16 11:11:16;;;;;;;9.80;3.40;;;40.20;1.00;;;;;;6278473;22;20429;-46
2023/10/16 11:13:46;;;;;;;5.20;2.33;;;40.30;1.00;;;;;;6305398;22;20347;-46
2023/10/16 11:16:19;;;;;;;11.77;2.30;;;40.30;1.00;;;;;;6306916;22;20178;-46
2023/10/16 11:18:58;;;;;;;9.80;2.50;;;40.10;1.00;;;;;;6278011;22;20378;-47
2023/10/16 11:21:28;;;;;;;4.50;2.37;;;39.60;1.00;;;;;;6278511;22;20393;-46
2023/10/16 11:24:00;;;;;;;14.07;4.50;;;40.10;1.00;;;;;;6305121;22;20397;-47
2023/10/16 11:26:28;;;;;;;19.90;3.80;;;40.30;1.00;;;;;;6281270;22;20880;-46
2023/10/16 11:28:54;;;;;;;10.57;3.30;;;40.60;1.00;;;;;;6279625;22;20455;-46
2023/10/16 11:31:21;;;;;;;7.30;2.90;;;40.30;1.00;;;;;;6275492;22;20433;-46
2023/10/16 11:34:30;;;;;;;6.80;2.50;;;40.30;1.00;;;;;;6303967;22;20385;-46
2023/10/16 11:36:50;;;;;;;16.27;3.43;;;40.50;1.00;;;;;;6298481;22;20414;-50
2023/10/16 11:39:19;;;;;;;14.33;3.93;;;40.20;1.00;;;;;;6279111;22;20394;-47
2023/10/16 11:41:46;;;;;;;5.80;3.00;;;40.10;1.00;;;;;;6280200;22;20390;-47
2023/10/16 11:44:16;;;;;;;11.23;3.23;;;40.70;1.00;;;;;;6307060;22;20502;-46
2023/10/16 11:46:55;;;;;;;8.30;2.67;;;40.50;1.00;;;;;;6279945;22;20458;-46
2023/10/16 11:49:23;;;;;;;8.27;2.87;;;40.30;1.00;;;;;;6307370;22;20373;-47
2023/10/16 11:51:55;;;;;;;13.83;4.30;;;40.50;1.00;;;;;;6278467;22;20973;-48
2023/10/16 11:54:23;;;;;;;18.03;4.30;;;40.50;1.00;;;;;;6305145;22;20604;-38
2023/10/16 11:56:53;;;;;;;11.57;3.00;;;40.60;1.00;;;;;;6307723;22;20378;-38
2023/10/16 11:59:19;;;;;;;9.07;3.10;;;40.60;1.00;;;;;;6305068;22;20877;-37
2023/10/16 12:01:46;;;;;;;5.13;2.50;;;41.00;1.00;;;;;;6307072;22;20792;-37
2023/10/16 12:04:14;;;;;;;8.80;2.70;;;40.80;1.00;;;;;;6306450;22;20354;-38
2023/10/16 12:06:44;;;;;;;7.50;2.40;;;41.00;1.00;;;;;;6306608;22;20392;-38
2023/10/16 12:09:13;;;;;;;15.80;3.20;;;41.10;1.00;;;;;;6307573;22;20386;-38
2023/10/16 12:11:42;;;;;;;10.50;3.53;;;41.30;1.00;;;;;;6307039;22;20705;-39
2023/10/16 12:14:14;;;;;;;7.53;3.20;;;41.70;1.00;;;;;;6307194;22;20381;-38
2023/10/16 12:16:45;;;;;;;5.90;2.07;;;41.70;1.00;;;;;;6306733;22;20347;-38
2023/10/16 12:19:15;;;;;;;5.67;2.20;;;41.20;1.00;;;;;;6304195;22;20455;-38
2023/10/16 12:21:45;;;;;;;8.23;3.33;;;41.60;1.00;;;;;;6306221;22;20470;-39
2023/10/16 12:24:11;;;;;;;3.47;1.90;;;42.30;1.00;;;;;;6306787;22;20685;-39
2023/10/16 12:26:40;;;;;;;3.27;1.70;;;42.50;1.00;;;;;;6306136;22;20378;-37
2023/10/16 12:29:08;;;;;;;5.77;2.30;;;42.30;1.00;;;;;;6305331;22;20156;-37
2023/10/16 12:31:36;;;;;;;22.50;6.27;;;41.90;1.00;;;;;;6304195;22;20406;-38
2023/10/16 12:34:03;;;;;;;20.27;5.77;;;41.70;1.00;;;;;;6304856;22;20362;-40
2023/10/16 12:36:32;;;;;;;26.60;8.70;;;41.80;1.00;;;;;;6277613;22;20381;-38
2023/10/16 12:38:59;;;;;;;26.87;6.70;;;41.80;99.90;;;;;;6277261;22;20421;-38
2023/10/16 12:41:25;;;;;;;23.50;6.13;;;41.70;99.90;;;;;;6276799;22;20402;-40
2023/10/16 12:43:51;;;;;;;12.67;3.60;;;41.50;99.90;;;;;;6305463;22;20674;-39
2023/10/16 12:46:17;;;;;;;14.93;4.80;;;41.80;99.90;;;;;;6304000;22;20203;-40
2023/10/16 12:48:44;;;;;;;13.93;4.30;;;41.70;99.90;;;;;;6279628;22;20421;-39
2023/10/16 12:51:10;;;;;;;11.53;3.60;;;42.20;99.90;;;;;;6307589;22;20521;-43
2023/10/16 12:53:41;;;;;;;9.00;3.50;;;42.20;99.90;;;;;;6306953;22;20404;-38
2023/10/16 12:56:07;;;;;;;37.37;9.10;;;42.40;99.90;;;;;;6281058;22;20398;-36
2023/10/16 12:58:33;;;;;;;51.57;13.77;;;42.80;1.00;;;;;;6308256;22;20362;-42
2023/10/16 13:01:01;;;;;;;34.40;9.47;;;42.80;1.00;;;;;;6306829;22;20424;-39
2023/10/16 13:03:26;;;;;;;26.47;8.27;;;43.20;1.00;;;;;;6279623;22;20390;-39
2023/10/16 13:05:52;;;;;;;19.80;5.57;;;42.90;1.00;;;;;;6307390;22;20485;-38
2023/10/16 13:08:20;;;;;;;25.47;7.53;;;43.30;1.00;;;;;;6306215;22;20539;-39
2023/10/16 13:10:48;;;;;;;16.63;6.17;;;43.60;1.00;;;;;;6307469;22;20187;-39
2023/10/16 13:13:21;;;;;;;13.03;4.53;;;43.30;1.00;;;;;;6307771;22;20366;-43
2023/10/16 13:15:51;;;;;;;9.93;3.93;;;42.90;99.90;;;;;;6307855;22;20428;-38
2023/10/16 13:18:26;;;;;;;10.67;4.17;;;42.60;99.90;;;;;;6309274;22;20390;-38
2023/10/16 13:20:57;;;;;;;7.07;3.03;;;42.30;99.90;;;;;;6307717;22;20685;-39
2023/10/16 13:23:26;;;;;;;11.67;3.60;;;42.20;99.90;;;;;;6279911;22;20381;-39
2023/10/16 13:25:56;;;;;;;10.60;3.90;;;41.90;99.90;;;;;;6279462;22;20785;-39
2023/10/16 13:28:25;;;;;;;13.23;3.50;;;41.80;99.90;;;;;;6279343;22;20346;-39
2023/10/16 13:30:52;;;;;;;9.70;3.63;;;42.30;99.90;;;;;;6277940;22;20471;-39
2023/10/16 13:33:21;;;;;;;26.03;6.57;;;42.70;99.90;;;;;;6305920;22;20386;-39
2023/10/16 13:35:47;;;;;;;11.00;3.07;;;43.00;99.90;;;;;;6306074;22;21014;-39
2023/10/16 13:38:14;;;;;;;7.60;3.03;;;42.80;99.90;;;;;;6304304;22;20378;-39
2023/10/16 13:40:43;;;;;;;6.03;2.43;;;42.80;99.90;;;;;;6306308;22;20382;-38
2023/10/16 13:43:12;;;;;;;11.57;3.70;;;42.50;99.90;;;;;;6304741;22;20362;-39
2023/10/16 13:45:38;;;;;;;17.40;3.13;;;42.50;99.90;;;;;;6305626;22;20390;-39
2023/10/16 13:48:08;;;;;;;17.23;3.73;;;42.50;99.90;;;;;;6304271;22;20397;-42
2023/10/16 13:50:34;;;;;;;22.40;4.07;;;42.20;99.90;;;;;;6306921;22;20422;-39
2023/10/16 13:53:04;;;;;;;22.90;6.73;;;42.10;99.90;;;;;;6305435;22;20390;-40
2023/10/16 13:55:30;;;;;;;22.87;3.37;;;42.10;99.90;;;;;;6306583;22;20347;-38
2023/10/16 13:57:56;;;;;;;14.90;3.23;;;42.30;99.90;;;;;;6304900;22;20358;-39
2023/10/16 14:00:28;;;;;;;13.57;3.33;;;41.90;99.90;;;;;;6306396;22;20429;-42
2023/10/16 14:03:05;;;;;;;14.93;3.33;;;41.60;99.90;;;;;;6306609;22;20959;-40
2023/10/16 14:05:35;;;;;;;5.37;2.50;;;41.60;99.90;;;;;;6305443;22;20382;-41
2023/10/16 14:08:03;;;;;;;5.50;2.57;;;41.20;99.90;;;;;;6248651;22;20623;-39
2023/10/16 14:10:28;;;;;;;7.10;2.60;;;40.80;99.90;;;;;;6303262;22;21040;-38
2023/10/16 14:13:00;;;;;;;8.73;2.53;;;40.40;99.90;;;;;;6304985;22;20366;-41
2023/10/16 14:15:32;;;;;;;8.10;2.13;;;40.30;99.90;;;;;;6305963;22;20174;-39
2023/10/16 14:17:59;;;;;;;5.90;2.20;;;40.10;99.90;;;;;;6279005;22;20501;-40
2023/10/16 14:20:34;;;;;;;8.10;2.00;;;40.30;99.90;;;;;;6305752;22;20387;-41
2023/10/16 14:23:01;;;;;;;4.53;2.00;;;40.10;99.90;;;;;;6305085;22;20382;-39
2023/10/16 14:25:32;;;;;;;5.93;2.60;;;39.90;99.90;;;;;;6306493;22;20733;-41
2023/10/16 14:31:09;;;;;;;6.30;1.93;;;39.40;99.90;;;;;;6181288;23;20437;-38
2023/10/16 14:33:36;;;;;;;9.60;1.60;;;39.30;99.90;;;;;;6183244;23;20813;-39
2023/10/16 14:36:06;;;;;;;4.70;1.60;;;38.90;99.90;;;;;;6244532;22;20433;-38
2023/10/16 14:38:32;;;;;;;5.23;1.87;;;38.70;99.90;;;;;;6306993;22;20386;-38
2023/10/16 14:41:08;;;;;;;7.27;2.00;;;38.40;99.90;;;;;;6307510;22;20451;-39
2023/10/16 14:43:37;;;;;;;4.07;1.50;;;38.00;99.90;;;;;;6307578;22;20448;-39
2023/10/16 14:46:07;;;;;;;3.40;1.50;;;37.20;99.90;;;;;;6252873;22;21002;-40
2023/10/16 14:48:33;;;;;;;5.83;1.43;;;36.60;99.90;;;;;;6279546;22;20834;-39
2023/10/16 14:50:59;;;;;;;3.90;1.70;;;36.10;99.90;;;;;;6278273;22;20436;-43
2023/10/16 14:53:26;;;;;;;5.00;1.80;;;35.50;99.90;;;;;;6278749;22;20452;-41
2023/10/16 14:55:52;;;;;;;7.43;1.97;;;35.00;99.90;;;;;;6306071;22;20820;-38
2023/10/16 14:58:20;;;;;;;2.70;1.50;;;34.70;99.90;;;;;;6305031;22;20354;-40
2023/10/16 15:00:50;;;;;;;4.27;1.27;;;34.30;99.90;;;;;;6303824;22;20441;-40
2023/10/16 15:03:16;;;;;;;1.90;1.03;;;33.90;99.90;;;;;;6303853;22;20382;-39
2023/10/16 15:05:44;;;;;;;3.73;1.60;;;33.60;99.90;;;;;;6277901;22;20397;-43
2023/10/16 15:08:14;;;;;;;2.70;1.23;;;33.20;99.90;;;;;;6277672;22;20651;-40
2023/10/16 15:10:44;;;;;;;3.33;1.20;;;32.80;99.90;;;;;;6251987;22;20823;-39
2023/10/16 15:13:16;;;;;;;4.03;1.63;;;32.40;99.90;;;;;;6303431;22;20397;-40
2023/10/16 15:15:43;;;;;;;2.90;1.40;;;32.00;99.90;;;;;;6277085;22;20475;-39
2023/10/16 15:18:11;;;;;;;2.80;1.30;;;31.80;99.90;;;;;;6304199;22;20418;-40